Weather at Gander International Airport / CFB Gander

Public forecast

Using degrees Celsius for public forecast. Weather courtesy of forecast.io.

Current aviation weather report (METAR) for Gander International Airport / CFB Gander

2024/04/25 12:00 (retrieved 44 minutes ago)

CYQX 251200Z 24009G20KT 20SM FEW014 SCT017 SCT200 09/07 A2971 RMK SC2SC1CI1 SLP067

Aviation forecast (TAF) for Gander International Airport / CFB Gander

2024/04/25 12:42 (retrieved 2 minutes ago)

TAF CYQX 251141Z 2512/2612 24012G22KT P6SM SCT009 TEMPO 2512/2513 5SM -DZ BR BKN009 FM251300 22018G28KT P6SM BKN015 TEMPO 2513/2515 SCT015 FM251500 22020G30KT P6SM BKN030 TEMPO 2515/2520 SCT030 FM252000 23020G30KT P6SM FEW030 BECMG 2522/2524 24015G25KT FM260300 24015KT P6SM SCT025 FM260600 24012KT P6SM -SHSN BKN025 RMK NXT FCST BY 251800Z